createdAt,value
2023-04-07T00:01:40.782Z,100.00
2023-04-07T00:04:29.544Z,100.00
2023-04-07T00:07:18.116Z,100.00
2023-04-07T00:10:07.703Z,100.00
2023-04-07T00:12:56.230Z,100.00
2023-04-07T00:15:44.797Z,99.78
2023-04-07T00:18:34.743Z,100.00
2023-04-07T00:21:23.337Z,100.00
2023-04-07T00:24:14.408Z,100.00
2023-04-07T00:27:05.133Z,100.00
2023-04-07T00:29:55.385Z,100.00
2023-04-07T00:32:45.479Z,100.00
2023-04-07T00:35:35.838Z,100.00
2023-04-07T00:38:24.351Z,100.00
2023-04-07T00:41:12.882Z,100.00
2023-04-07T00:44:01.438Z,100.00
2023-04-07T00:46:50.015Z,100.00
2023-04-07T00:49:38.713Z,100.00
2023-04-07T00:52:30.061Z,100.00
2023-04-07T00:55:18.620Z,100.00
2023-04-07T00:58:07.192Z,100.00
2023-04-07T01:01:04.914Z,100.00
2023-04-07T01:03:55.780Z,100.00
2023-04-07T01:06:47.947Z,100.00
2023-04-07T01:09:44.340Z,100.00
2023-04-07T01:12:37.602Z,100.00
2023-04-07T01:15:29.070Z,100.00
2023-04-07T01:18:22.158Z,100.00
2023-04-07T01:21:12.643Z,100.00
2023-04-07T01:24:29.989Z,100.00
2023-04-07T01:27:25.772Z,100.00
2023-04-07T01:30:17.105Z,100.00
2023-04-07T01:33:06.477Z,100.00
2023-04-07T01:35:56.231Z,100.00
2023-04-07T01:38:46.048Z,100.00
2023-04-07T01:41:35.013Z,100.00
2023-04-07T01:44:23.911Z,100.00
2023-04-07T01:47:13.882Z,100.00
2023-04-07T01:50:03.974Z,100.00
2023-04-07T01:52:52.890Z,100.00
2023-04-07T01:55:41.518Z,100.00
2023-04-07T01:58:30.560Z,100.00
2023-04-07T02:01:19.291Z,100.00
2023-04-07T02:04:13.367Z,100.00
2023-04-07T02:07:05.768Z,100.00
2023-04-07T02:09:56.084Z,100.00
2023-04-07T02:12:45.624Z,100.00
2023-04-07T02:15:34.551Z,100.00
2023-04-07T02:18:24.020Z,100.00
2023-04-07T02:21:15.110Z,100.00
2023-04-07T02:24:05.878Z,100.00
2023-04-07T02:26:54.629Z,100.00
2023-04-07T02:29:43.116Z,100.00
2023-04-07T02:32:31.752Z,100.00
2023-04-07T02:35:20.479Z,100.00
2023-04-07T02:38:10.573Z,100.00
2023-04-07T02:40:59.488Z,100.00
2023-04-07T02:43:48.086Z,100.00
2023-04-07T02:46:36.712Z,100.00
2023-04-07T02:49:25.331Z,100.00
2023-04-07T02:52:13.907Z,100.00
2023-04-07T02:55:04.197Z,100.00
2023-04-07T02:57:52.755Z,100.00
2023-04-07T03:00:41.282Z,100.00
2023-04-07T03:03:29.968Z,100.00
2023-04-07T03:06:18.622Z,100.00
2023-04-07T03:09:07.264Z,100.00
2023-04-07T03:11:57.132Z,100.00
2023-04-07T03:14:45.814Z,100.00
2023-04-07T03:17:34.676Z,100.00
2023-04-07T03:20:23.211Z,100.00
2023-04-07T03:23:11.731Z,100.00
2023-04-07T03:26:00.307Z,100.00
2023-04-07T03:28:50.307Z,100.00
2023-04-07T03:31:38.829Z,100.00
2023-04-07T03:34:27.355Z,100.00
2023-04-07T03:37:15.898Z,100.00
2023-04-07T03:40:04.613Z,100.00
2023-04-07T03:42:53.184Z,100.00
2023-04-07T03:45:43.129Z,100.00
2023-04-07T03:48:31.999Z,100.00
2023-04-07T03:51:20.648Z,100.00
2023-04-07T03:54:09.209Z,100.00
2023-04-07T03:56:57.867Z,100.00
2023-04-07T03:59:47.470Z,100.00
2023-04-07T04:02:37.415Z,100.00
2023-04-07T04:05:25.966Z,100.00
2023-04-07T04:08:14.521Z,100.00
2023-04-07T04:11:03.032Z,100.00
2023-04-07T04:13:51.775Z,100.00
2023-04-07T04:16:40.823Z,100.00
2023-04-07T04:19:30.636Z,100.00
2023-04-07T04:22:19.302Z,100.00
2023-04-07T04:25:08.282Z,100.00
2023-04-07T04:27:56.918Z,100.00
2023-04-07T04:30:45.415Z,100.00
2023-04-07T04:33:33.962Z,100.00
2023-04-07T04:36:23.809Z,100.00
2023-04-07T04:39:12.567Z,100.00
2023-04-07T04:42:01.147Z,100.00
2023-04-07T04:44:49.862Z,100.00
2023-04-07T04:47:39.039Z,100.00
2023-04-07T04:50:27.789Z,100.00
2023-04-07T04:53:17.620Z,100.00
2023-04-07T04:56:07.079Z,100.00
2023-04-07T04:58:55.592Z,100.00
2023-04-07T05:01:44.252Z,100.00
2023-04-07T05:04:33.084Z,100.00
2023-04-07T05:07:21.752Z,100.00
2023-04-07T05:10:12.739Z,100.00
2023-04-07T05:13:01.312Z,100.00
2023-04-07T05:15:49.922Z,100.00
2023-04-07T05:18:38.497Z,100.00
2023-04-07T05:21:27.112Z,100.00
2023-04-07T05:24:15.626Z,100.00
2023-04-07T05:27:05.616Z,100.00
2023-04-07T05:29:54.161Z,100.00
2023-04-07T05:32:42.748Z,100.00
2023-04-07T05:35:31.360Z,100.00
2023-04-07T05:38:19.913Z,100.00
2023-04-07T05:41:08.451Z,100.00
2023-04-07T05:43:58.375Z,100.00
2023-04-07T05:46:46.944Z,100.00
2023-04-07T05:49:35.678Z,100.00
2023-04-07T05:52:24.236Z,100.00
2023-04-07T05:55:12.924Z,100.00
2023-04-07T05:58:01.411Z,100.00
2023-04-07T06:00:51.336Z,100.00
2023-04-07T06:03:41.255Z,100.00
2023-04-07T06:06:30.199Z,100.00
2023-04-07T06:09:18.684Z,100.00
2023-04-07T06:12:07.356Z,100.00
2023-04-07T06:14:56.576Z,100.00
2023-04-07T06:17:46.545Z,100.00
2023-04-07T06:20:35.763Z,100.00
2023-04-07T06:23:24.309Z,100.00
2023-04-07T06:26:13.111Z,100.00
2023-04-07T06:29:01.816Z,100.00
2023-04-07T06:31:50.411Z,100.00
2023-04-07T06:34:40.376Z,100.00
2023-04-07T06:37:28.933Z,100.00
2023-04-07T06:40:17.532Z,100.00
2023-04-07T06:43:06.209Z,100.00
2023-04-07T06:45:54.698Z,100.00
2023-04-07T06:48:43.188Z,100.00
2023-04-07T06:51:33.145Z,100.00
2023-04-07T06:54:21.658Z,100.00
2023-04-07T06:57:12.153Z,96.18
2023-04-07T07:00:00.743Z,90.72
2023-04-07T07:02:49.411Z,86.32
2023-04-07T07:05:38.002Z,85.13
2023-04-07T07:08:28.305Z,81.88
2023-04-07T07:11:17.007Z,81.90
2023-04-07T07:14:05.445Z,79.16
2023-04-07T07:16:53.916Z,76.73
2023-04-07T07:19:43.107Z,73.19
2023-04-07T07:22:31.919Z,72.81
2023-04-07T07:25:21.910Z,72.71
2023-04-07T07:28:10.456Z,71.47
2023-04-07T07:30:58.998Z,69.46
2023-04-07T07:33:49.115Z,68.15
2023-04-07T07:36:37.925Z,67.01
2023-04-07T07:39:26.783Z,66.81
2023-04-07T07:42:17.154Z,66.66
2023-04-07T07:45:06.618Z,66.58
2023-04-07T07:47:55.204Z,65.41
2023-04-07T07:50:44.525Z,64.89
2023-04-07T07:53:33.090Z,64.30
2023-04-07T07:56:21.610Z,63.31
2023-04-07T07:59:11.424Z,62.85
2023-04-07T08:02:00.237Z,61.62
2023-04-07T08:04:48.888Z,62.52
2023-04-07T08:07:37.685Z,62.89
2023-04-07T08:10:26.240Z,62.55
2023-04-07T08:13:14.706Z,62.56
2023-04-07T08:16:04.845Z,61.49
2023-04-07T08:18:53.470Z,62.02
2023-04-07T08:21:41.959Z,60.24
2023-04-07T08:24:30.661Z,60.72
2023-04-07T08:27:19.152Z,60.25
2023-04-07T08:30:08.617Z,59.38
2023-04-07T08:32:58.667Z,58.30
2023-04-07T08:35:47.424Z,60.34
2023-04-07T08:38:36.063Z,58.11
2023-04-07T08:41:30.494Z,58.83
2023-04-07T08:44:19.383Z,59.50
2023-04-07T08:47:08.764Z,57.16
2023-04-07T08:50:03.573Z,57.98
2023-04-07T08:52:55.686Z,56.44
2023-04-07T08:55:44.211Z,57.05
2023-04-07T08:58:32.712Z,57.63
2023-04-07T09:01:21.646Z,57.96
2023-04-07T09:04:11.440Z,58.68
2023-04-07T09:07:02.140Z,60.55
2023-04-07T09:09:50.951Z,61.01
2023-04-07T09:12:39.850Z,62.66
2023-04-07T09:15:31.660Z,61.66
2023-04-07T09:18:20.553Z,63.04
2023-04-07T09:21:09.094Z,63.71
2023-04-07T09:23:58.895Z,63.11
2023-04-07T09:26:47.445Z,62.12
2023-04-07T09:29:35.943Z,61.35
2023-04-07T09:32:38.664Z,60.45
2023-04-07T09:35:28.612Z,62.20
2023-04-07T09:38:17.545Z,62.37
2023-04-07T09:41:12.136Z,60.68
2023-04-07T09:44:00.581Z,61.57
2023-04-07T09:46:52.707Z,60.88
2023-04-07T09:49:50.422Z,59.08
2023-04-07T09:52:52.955Z,59.85
2023-04-07T09:55:42.601Z,59.92
2023-04-07T09:58:32.490Z,62.08
2023-04-07T10:01:22.841Z,61.47
2023-04-07T10:04:12.016Z,61.86
2023-04-07T10:07:01.185Z,62.21
2023-04-07T10:09:49.698Z,62.05
2023-04-07T10:12:38.923Z,62.90
2023-04-07T10:15:28.799Z,63.30
2023-04-07T10:18:19.038Z,62.53
2023-04-07T10:21:09.353Z,58.29
2023-04-07T10:24:02.456Z,59.15
2023-04-07T10:26:53.167Z,58.62
2023-04-07T10:29:42.932Z,59.35
2023-04-07T10:32:32.903Z,57.97
2023-04-07T10:35:22.367Z,58.86
2023-04-07T10:38:13.937Z,57.77
2023-04-07T10:41:36.291Z,57.45
2023-04-07T10:44:46.978Z,57.19
2023-04-07T10:47:37.879Z,58.46
2023-04-07T10:50:26.725Z,59.21
2023-04-07T10:53:16.376Z,61.30
2023-04-07T10:56:05.783Z,63.80
2023-04-07T10:59:15.369Z,66.49
2023-04-07T11:02:32.693Z,72.88
2023-04-07T11:05:23.950Z,74.83
2023-04-07T11:08:12.578Z,79.20
2023-04-07T11:11:01.355Z,80.08
2023-04-07T11:13:51.493Z,82.19
2023-04-07T11:16:42.754Z,80.66
2023-04-07T11:19:32.454Z,81.36
2023-04-07T11:22:30.001Z,82.22
2023-04-07T11:25:23.158Z,80.42
2023-04-07T11:28:13.067Z,78.95
2023-04-07T11:31:01.933Z,80.10
2023-04-07T11:33:54.829Z,81.16
2023-04-07T11:36:43.439Z,79.28
2023-04-07T11:39:35.176Z,77.24
2023-04-07T11:42:33.300Z,78.54
2023-04-07T11:45:22.150Z,78.59
2023-04-07T11:48:28.846Z,77.07
2023-04-07T11:51:18.358Z,74.16
2023-04-07T11:54:07.004Z,71.72
2023-04-07T11:56:56.930Z,66.14
2023-04-07T11:59:45.479Z,67.50
2023-04-07T12:02:34.794Z,64.48
2023-04-07T12:05:24.866Z,58.95
2023-04-07T12:08:14.851Z,60.60
2023-04-07T12:11:05.336Z,57.05
2023-04-07T12:13:56.136Z,52.50
2023-04-07T12:16:45.298Z,53.29
2023-04-07T12:19:34.874Z,50.01
2023-04-07T12:22:23.840Z,54.99
2023-04-07T12:25:12.301Z,52.55
2023-04-07T12:28:00.795Z,53.48
2023-04-07T12:30:50.979Z,54.10
2023-04-07T12:33:39.506Z,54.30
2023-04-07T12:36:29.387Z,56.43
2023-04-07T12:39:17.961Z,59.23
2023-04-07T12:42:07.643Z,57.25
2023-04-07T12:44:56.684Z,57.69
2023-04-07T12:47:47.010Z,57.06
2023-04-07T12:50:36.427Z,57.59
2023-04-07T12:53:24.964Z,57.74
2023-04-07T12:56:13.898Z,57.81
2023-04-07T12:59:02.391Z,58.84
2023-04-07T13:01:51.538Z,59.24
2023-04-07T13:04:43.531Z,58.90
2023-04-07T13:07:32.109Z,58.44
2023-04-07T13:10:21.309Z,58.75
2023-04-07T13:13:09.840Z,59.57
2023-04-07T13:15:58.457Z,60.58
2023-04-07T13:18:47.204Z,60.47
2023-04-07T13:21:46.183Z,60.67
2023-04-07T13:24:36.812Z,59.36
2023-04-07T13:27:25.356Z,60.43
2023-04-07T13:30:14.611Z,58.67
2023-04-07T13:33:03.195Z,55.80
2023-04-07T13:35:51.818Z,56.35
2023-04-07T13:38:42.376Z,55.61
2023-04-07T13:41:31.758Z,54.67
2023-04-07T13:44:20.726Z,53.78
2023-04-07T13:47:09.269Z,55.25
2023-04-07T13:49:57.876Z,55.35
2023-04-07T13:52:46.719Z,56.52
2023-04-07T13:55:36.695Z,56.23
2023-04-07T13:58:25.375Z,57.50
2023-04-07T14:01:13.952Z,55.88
2023-04-07T14:04:02.877Z,55.25
2023-04-07T14:06:51.661Z,55.32
2023-04-07T14:09:40.423Z,55.79
2023-04-07T14:12:30.328Z,55.08
2023-04-07T14:15:18.780Z,55.50
2023-04-07T14:18:07.400Z,57.33
2023-04-07T14:20:56.037Z,58.18
2023-04-07T14:23:44.594Z,58.65
2023-04-07T14:26:33.120Z,58.38
2023-04-07T14:29:23.643Z,58.01
2023-04-07T14:32:12.174Z,56.80
2023-04-07T14:35:01.360Z,57.99
2023-04-07T14:37:49.865Z,59.59
2023-04-07T14:40:38.446Z,60.98
2023-04-07T14:43:27.772Z,60.53
2023-04-07T14:46:17.785Z,61.35
2023-04-07T14:49:06.445Z,62.96
2023-04-07T14:51:55.045Z,62.46
2023-04-07T14:54:43.591Z,62.89
2023-04-07T14:57:32.090Z,64.21
2023-04-07T15:00:20.873Z,64.04
2023-04-07T15:03:11.295Z,64.65
2023-04-07T15:06:00.392Z,63.34
2023-04-07T15:08:48.935Z,62.42
2023-04-07T15:11:37.523Z,62.77
2023-04-07T15:14:26.147Z,65.91
2023-04-07T15:17:14.696Z,66.86
2023-04-07T15:20:04.797Z,66.01
2023-04-07T15:22:53.316Z,66.98
2023-04-07T15:25:41.851Z,67.80
2023-04-07T15:28:30.478Z,67.87
2023-04-07T15:31:21.442Z,68.72
2023-04-07T15:34:10.034Z,69.04
2023-04-07T15:37:02.179Z,67.88
2023-04-07T15:39:52.270Z,67.43
2023-04-07T15:42:42.053Z,68.20
2023-04-07T15:45:30.758Z,68.72
2023-04-07T15:48:19.427Z,67.18
2023-04-07T15:51:07.995Z,66.00
2023-04-07T15:53:57.858Z,66.06
2023-04-07T15:56:46.409Z,64.94
2023-04-07T15:59:36.251Z,64.47
2023-04-07T16:02:25.065Z,64.83
2023-04-07T16:05:13.873Z,64.87
2023-04-07T16:08:02.712Z,65.15
2023-04-07T16:10:52.895Z,64.96
2023-04-07T16:13:41.366Z,65.86
2023-04-07T16:16:32.243Z,65.45
2023-04-07T16:19:21.640Z,65.62
2023-04-07T16:22:10.448Z,67.63
2023-04-07T16:24:58.928Z,68.56
2023-04-07T16:27:48.854Z,69.28
2023-04-07T16:30:37.348Z,70.59
2023-04-07T16:33:28.088Z,71.29
2023-04-07T16:36:16.636Z,70.63
2023-04-07T16:39:05.371Z,69.91
2023-04-07T16:41:53.876Z,71.13
2023-04-07T16:44:43.698Z,72.05
2023-04-07T16:47:33.116Z,72.35
2023-04-07T16:50:21.881Z,72.88
2023-04-07T16:53:10.497Z,72.36
2023-04-07T16:55:58.988Z,73.61
2023-04-07T16:58:47.737Z,74.38
2023-04-07T17:01:41.947Z,75.01
2023-04-07T17:04:30.892Z,75.21
2023-04-07T17:07:20.048Z,75.92
2023-04-07T17:10:09.875Z,75.86
2023-04-07T17:12:58.402Z,76.54
2023-04-07T17:15:47.118Z,77.46
2023-04-07T17:18:36.991Z,77.58
2023-04-07T17:21:26.126Z,77.86
2023-04-07T17:24:20.938Z,78.23
2023-04-07T17:27:09.570Z,78.91
2023-04-07T17:29:58.208Z,79.59
2023-04-07T17:32:46.771Z,79.82
2023-04-07T17:35:36.943Z,80.76
2023-04-07T17:38:25.592Z,81.22
2023-04-07T17:41:14.358Z,81.75
2023-04-07T17:44:03.134Z,81.82
2023-04-07T17:46:51.758Z,81.83
2023-04-07T17:49:40.604Z,82.11
2023-04-07T17:52:30.696Z,81.24
2023-04-07T17:55:19.624Z,80.85
2023-04-07T17:58:08.336Z,81.18
2023-04-07T18:00:57.074Z,81.09
2023-04-07T18:03:45.738Z,81.31
2023-04-07T18:06:35.000Z,80.79
2023-04-07T18:09:26.793Z,81.11
2023-04-07T18:12:15.327Z,80.50
2023-04-07T18:15:04.595Z,80.50
2023-04-07T18:17:54.967Z,80.92
2023-04-07T18:20:43.564Z,80.75
2023-04-07T18:23:32.160Z,81.26
2023-04-07T18:26:22.428Z,81.36
2023-04-07T18:29:11.765Z,81.59
2023-04-07T18:32:00.470Z,81.81
2023-04-07T18:34:49.044Z,81.70
2023-04-07T18:37:37.690Z,82.31
2023-04-07T18:40:26.412Z,82.27
2023-04-07T18:43:17.377Z,82.48
2023-04-07T18:46:06.447Z,82.77
2023-04-07T18:48:54.965Z,82.78
2023-04-07T18:51:44.563Z,82.99
2023-04-07T18:54:33.102Z,82.93
2023-04-07T18:57:21.852Z,83.14
2023-04-07T19:00:12.397Z,83.47
2023-04-07T19:03:01.134Z,83.45
2023-04-07T19:05:52.540Z,83.53
2023-04-07T19:08:41.381Z,84.20
2023-04-07T19:11:29.948Z,83.67
2023-04-07T19:14:18.488Z,83.66
2023-04-07T19:17:08.439Z,84.24
2023-04-07T19:19:56.990Z,84.38
2023-04-07T19:22:45.592Z,84.61
2023-04-07T19:25:34.907Z,84.57
2023-04-07T19:28:23.540Z,84.71
2023-04-07T19:31:12.157Z,84.48
2023-04-07T19:34:02.084Z,84.56
2023-04-07T19:36:50.640Z,84.46
2023-04-07T19:39:40.196Z,84.78
2023-04-07T19:42:29.738Z,84.67
2023-04-07T19:45:18.903Z,84.79
2023-04-07T19:48:07.933Z,84.66
2023-04-07T19:50:57.887Z,84.97
2023-04-07T19:53:46.833Z,85.31
2023-04-07T19:56:35.605Z,84.89
2023-04-07T19:59:24.081Z,85.09
2023-04-07T20:02:12.764Z,85.32
2023-04-07T20:05:01.382Z,85.23
2023-04-07T20:07:51.485Z,85.75
2023-04-07T20:10:40.018Z,86.06
2023-04-07T20:13:31.655Z,86.12
2023-04-07T20:16:20.485Z,86.04
2023-04-07T20:19:09.061Z,86.21
2023-04-07T20:21:57.653Z,86.39
2023-04-07T20:24:47.559Z,86.60
2023-04-07T20:27:36.151Z,86.76
2023-04-07T20:30:24.893Z,86.44
2023-04-07T20:33:14.037Z,86.42
2023-04-07T20:36:02.604Z,87.18
2023-04-07T20:38:51.449Z,89.06
2023-04-07T20:41:42.851Z,90.59
2023-04-07T20:44:31.604Z,92.37
2023-04-07T20:47:20.105Z,94.39
2023-04-07T20:50:09.805Z,96.84
2023-04-07T20:52:58.655Z,98.59
2023-04-07T20:55:47.346Z,100.00
2023-04-07T20:58:37.260Z,100.00
2023-04-07T21:01:25.990Z,100.00
2023-04-07T21:04:14.814Z,100.00
2023-04-07T21:07:03.460Z,100.00
2023-04-07T21:09:51.953Z,100.00
2023-04-07T21:12:40.434Z,100.00
2023-04-07T21:15:30.672Z,100.00
2023-04-07T21:18:19.559Z,100.00
2023-04-07T21:21:08.564Z,100.00
2023-04-07T21:23:57.035Z,100.00
2023-04-07T21:26:45.563Z,100.00
2023-04-07T21:29:34.082Z,100.00
2023-04-07T21:32:25.011Z,100.00
2023-04-07T21:35:13.589Z,100.00
2023-04-07T21:38:02.077Z,100.00
2023-04-07T21:40:50.690Z,100.00
2023-04-07T21:43:39.428Z,100.00
2023-04-07T21:46:28.938Z,99.57
2023-04-07T21:49:22.090Z,99.02
2023-04-07T21:52:10.747Z,99.00
2023-04-07T21:54:59.231Z,99.07
2023-04-07T21:57:47.849Z,99.03
2023-04-07T22:00:38.277Z,99.21
2023-04-07T22:03:26.947Z,99.85
2023-04-07T22:06:17.069Z,100.00
2023-04-07T22:09:06.689Z,100.00
2023-04-07T22:11:55.988Z,100.00
2023-04-07T22:14:45.185Z,100.00
2023-04-07T22:17:33.809Z,100.00
2023-04-07T22:20:22.310Z,100.00
2023-04-07T22:23:12.166Z,100.00
2023-04-07T22:26:00.712Z,100.00
2023-04-07T22:28:49.367Z,100.00
2023-04-07T22:31:37.980Z,100.00
2023-04-07T22:34:26.476Z,100.00
2023-04-07T22:37:14.948Z,100.00
2023-04-07T22:40:05.680Z,100.00
2023-04-07T22:42:54.231Z,100.00
2023-04-07T22:45:42.889Z,100.00
2023-04-07T22:48:31.372Z,100.00
2023-04-07T22:51:19.884Z,99.57
2023-04-07T22:54:08.349Z,99.57
2023-04-07T22:56:58.202Z,99.86
2023-04-07T22:59:46.646Z,100.00
2023-04-07T23:02:35.433Z,100.00
2023-04-07T23:05:24.102Z,100.00
2023-04-07T23:08:12.655Z,100.00
2023-04-07T23:11:01.187Z,100.00
2023-04-07T23:13:51.270Z,100.00
2023-04-07T23:16:39.887Z,100.00
2023-04-07T23:19:28.419Z,100.00
2023-04-07T23:22:16.977Z,100.00
2023-04-07T23:25:06.887Z,100.00
2023-04-07T23:27:55.456Z,100.00
2023-04-07T23:30:45.502Z,100.00
2023-04-07T23:33:33.990Z,100.00
2023-04-07T23:36:22.586Z,100.00
2023-04-07T23:39:11.353Z,100.00
2023-04-07T23:42:00.123Z,100.00
2023-04-07T23:44:48.657Z,100.00
2023-04-07T23:47:38.600Z,100.00
2023-04-07T23:50:27.804Z,100.00
2023-04-07T23:53:16.440Z,100.00
2023-04-07T23:56:05.000Z,100.00
2023-04-07T23:58:53.990Z,100.00
